sensor_id;sensor_type;location;lat;lon;timestamp;temperature;humidity
22716;DHT22;11525;51.152;4.456;2023-08-17T00:15:26;19.80;99.90
22716;DHT22;11525;51.152;4.456;2023-08-17T00:17:51;20.00;99.90
22716;DHT22;11525;51.152;4.456;2023-08-17T00:20:17;20.00;99.90
22716;DHT22;11525;51.152;4.456;2023-08-17T00:22:43;19.90;99.90
22716;DHT22;11525;51.152;4.456;2023-08-17T00:25:08;19.80;99.90
22716;DHT22;11525;51.152;4.456;2023-08-17T00:27:34;19.80;99.90
22716;DHT22;11525;51.152;4.456;2023-08-17T00:30:00;19.80;99.90
22716;DHT22;11525;51.152;4.456;2023-08-17T00:32:25;19.70;99.90
22716;DHT22;11525;51.152;4.456;2023-08-17T00:34:51;19.50;99.90
22716;DHT22;11525;51.152;4.456;2023-08-17T00:37:17;19.40;99.90
22716;DHT22;11525;51.152;4.456;2023-08-17T00:39:42;19.30;99.90
22716;DHT22;11525;51.152;4.456;2023-08-17T00:42:08;19.30;99.90
22716;DHT22;11525;51.152;4.456;2023-08-17T00:44:34;19.20;99.90
22716;DHT22;11525;51.152;4.456;2023-08-17T00:46:59;19.10;99.90
22716;DHT22;11525;51.152;4.456;2023-08-17T00:49:25;19.10;99.90
22716;DHT22;11525;51.152;4.456;2023-08-17T00:51:51;19.00;99.90
22716;DHT22;11525;51.152;4.456;2023-08-17T00:54:22;19.00;99.90
22716;DHT22;11525;51.152;4.456;2023-08-17T00:56:49;18.90;99.90
22716;DHT22;11525;51.152;4.456;2023-08-17T00:59:14;18.80;99.90
22716;DHT22;11525;51.152;4.456;2023-08-17T01:01:40;18.80;99.90
22716;DHT22;11525;51.152;4.456;2023-08-17T01:04:06;18.70;99.90
22716;DHT22;11525;51.152;4.456;2023-08-17T01:06:32;18.70;99.90
22716;DHT22;11525;51.152;4.456;2023-08-17T01:08:57;18.70;99.90
22716;DHT22;11525;51.152;4.456;2023-08-17T01:14:11;18.70;99.90
22716;DHT22;11525;51.152;4.456;2023-08-17T01:16:43;18.60;99.90
22716;DHT22;11525;51.152;4.456;2023-08-17T01:19:24;18.60;99.90
22716;DHT22;11525;51.152;4.456;2023-08-17T01:21:51;18.70;99.90
22716;DHT22;11525;51.152;4.456;2023-08-17T01:24:19;18.70;99.90
22716;DHT22;11525;51.152;4.456;2023-08-17T01:26:45;18.70;99.90
22716;DHT22;11525;51.152;4.456;2023-08-17T01:29:11;18.70;99.90
22716;DHT22;11525;51.152;4.456;2023-08-17T01:31:46;18.70;99.90
22716;DHT22;11525;51.152;4.456;2023-08-17T01:34:19;18.80;99.90
22716;DHT22;11525;51.152;4.456;2023-08-17T01:36:53;18.90;99.90
22716;DHT22;11525;51.152;4.456;2023-08-17T01:39:23;18.90;99.90
22716;DHT22;11525;51.152;4.456;2023-08-17T01:41:51;19.00;99.90
22716;DHT22;11525;51.152;4.456;2023-08-17T01:44:18;19.00;99.90
22716;DHT22;11525;51.152;4.456;2023-08-17T01:46:43;18.90;99.90
22716;DHT22;11525;51.152;4.456;2023-08-17T01:49:09;18.90;99.90
22716;DHT22;11525;51.152;4.456;2023-08-17T01:51:35;18.90;99.90
22716;DHT22;11525;51.152;4.456;2023-08-17T01:54:04;18.80;99.90
22716;DHT22;11525;51.152;4.456;2023-08-17T01:56:29;18.70;99.90
22716;DHT22;11525;51.152;4.456;2023-08-17T01:58:55;18.80;99.90
22716;DHT22;11525;51.152;4.456;2023-08-17T02:01:20;18.80;99.90
22716;DHT22;11525;51.152;4.456;2023-08-17T02:03:46;18.70;99.90
22716;DHT22;11525;51.152;4.456;2023-08-17T02:06:12;18.70;99.90
22716;DHT22;11525;51.152;4.456;2023-08-17T02:08:38;18.60;99.90
22716;DHT22;11525;51.152;4.456;2023-08-17T02:11:04;18.60;99.90
22716;DHT22;11525;51.152;4.456;2023-08-17T02:13:29;18.60;99.90
22716;DHT22;11525;51.152;4.456;2023-08-17T02:15:55;18.60;99.90
22716;DHT22;11525;51.152;4.456;2023-08-17T02:18:21;18.60;99.90
22716;DHT22;11525;51.152;4.456;2023-08-17T02:20:46;18.50;99.90
22716;DHT22;11525;51.152;4.456;2023-08-17T02:23:12;18.50;99.90
22716;DHT22;11525;51.152;4.456;2023-08-17T02:25:39;18.50;99.90
22716;DHT22;11525;51.152;4.456;2023-08-17T02:28:05;18.40;99.90
22716;DHT22;11525;51.152;4.456;2023-08-17T02:30:30;18.40;99.90
22716;DHT22;11525;51.152;4.456;2023-08-17T02:32:56;18.40;99.90
22716;DHT22;11525;51.152;4.456;2023-08-17T02:35:22;18.20;99.90
22716;DHT22;11525;51.152;4.456;2023-08-17T02:37:48;18.30;99.90
22716;DHT22;11525;51.152;4.456;2023-08-17T02:40:13;18.30;99.90
22716;DHT22;11525;51.152;4.456;2023-08-17T02:42:39;18.40;99.90
22716;DHT22;11525;51.152;4.456;2023-08-17T02:45:08;18.30;99.90
22716;DHT22;11525;51.152;4.456;2023-08-17T02:47:34;18.30;99.90
22716;DHT22;11525;51.152;4.456;2023-08-17T02:50:00;18.30;99.90
22716;DHT22;11525;51.152;4.456;2023-08-17T02:52:25;18.30;99.90
22716;DHT22;11525;51.152;4.456;2023-08-17T02:54:51;18.30;99.90
22716;DHT22;11525;51.152;4.456;2023-08-17T02:57:17;18.30;99.90
22716;DHT22;11525;51.152;4.456;2023-08-17T02:59:43;18.20;99.90
22716;DHT22;11525;51.152;4.456;2023-08-17T03:02:09;18.10;99.90
22716;DHT22;11525;51.152;4.456;2023-08-17T03:04:35;18.00;99.90
22716;DHT22;11525;51.152;4.456;2023-08-17T03:07:00;17.90;99.90
22716;DHT22;11525;51.152;4.456;2023-08-17T03:09:26;18.00;99.90
22716;DHT22;11525;51.152;4.456;2023-08-17T03:11:52;18.00;99.90
22716;DHT22;11525;51.152;4.456;2023-08-17T03:14:17;17.90;99.90
22716;DHT22;11525;51.152;4.456;2023-08-17T03:16:43;17.90;99.90
22716;DHT22;11525;51.152;4.456;2023-08-17T03:19:09;17.90;99.90
22716;DHT22;11525;51.152;4.456;2023-08-17T03:21:36;17.90;99.90
22716;DHT22;11525;51.152;4.456;2023-08-17T03:24:02;17.80;99.90
22716;DHT22;11525;51.152;4.456;2023-08-17T03:26:28;17.80;99.90
22716;DHT22;11525;51.152;4.456;2023-08-17T03:28:54;17.90;99.90
22716;DHT22;11525;51.152;4.456;2023-08-17T03:31:21;17.90;99.90
22716;DHT22;11525;51.152;4.456;2023-08-17T03:33:47;17.80;99.90
22716;DHT22;11525;51.152;4.456;2023-08-17T03:36:12;17.90;99.90
22716;DHT22;11525;51.152;4.456;2023-08-17T03:38:38;17.90;99.90
22716;DHT22;11525;51.152;4.456;2023-08-17T03:41:05;17.80;99.90
22716;DHT22;11525;51.152;4.456;2023-08-17T03:43:31;17.80;99.90
22716;DHT22;11525;51.152;4.456;2023-08-17T03:45:56;17.90;99.90
22716;DHT22;11525;51.152;4.456;2023-08-17T03:48:22;17.90;99.90
22716;DHT22;11525;51.152;4.456;2023-08-17T03:50:52;18.00;99.90
22716;DHT22;11525;51.152;4.456;2023-08-17T03:53:18;18.10;99.90
22716;DHT22;11525;51.152;4.456;2023-08-17T03:55:48;18.10;99.90
22716;DHT22;11525;51.152;4.456;2023-08-17T03:58:14;18.10;99.90
22716;DHT22;11525;51.152;4.456;2023-08-17T04:00:39;18.20;99.90
22716;DHT22;11525;51.152;4.456;2023-08-17T04:03:06;18.20;99.90
22716;DHT22;11525;51.152;4.456;2023-08-17T04:05:32;18.20;99.90
22716;DHT22;11525;51.152;4.456;2023-08-17T04:07:59;18.20;99.90
22716;DHT22;11525;51.152;4.456;2023-08-17T04:10:29;18.30;99.90
22716;DHT22;11525;51.152;4.456;2023-08-17T04:12:58;18.40;99.90
22716;DHT22;11525;51.152;4.456;2023-08-17T04:15:24;18.50;99.90
22716;DHT22;11525;51.152;4.456;2023-08-17T04:17:50;18.50;99.90
22716;DHT22;11525;51.152;4.456;2023-08-17T04:20:16;18.40;99.90
22716;DHT22;11525;51.152;4.456;2023-08-17T04:22:41;18.40;99.90
22716;DHT22;11525;51.152;4.456;2023-08-17T04:25:07;18.20;99.90
22716;DHT22;11525;51.152;4.456;2023-08-17T04:27:33;18.20;99.90
22716;DHT22;11525;51.152;4.456;2023-08-17T04:29:59;18.20;99.90
22716;DHT22;11525;51.152;4.456;2023-08-17T04:32:25;18.10;99.90
22716;DHT22;11525;51.152;4.456;2023-08-17T04:34:51;18.20;99.90
22716;DHT22;11525;51.152;4.456;2023-08-17T04:37:17;18.20;99.90
22716;DHT22;11525;51.152;4.456;2023-08-17T04:39:42;18.10;99.90
22716;DHT22;11525;51.152;4.456;2023-08-17T04:42:09;18.10;99.90
22716;DHT22;11525;51.152;4.456;2023-08-17T04:44:34;18.20;99.90
22716;DHT22;11525;51.152;4.456;2023-08-17T04:47:00;18.10;99.90
22716;DHT22;11525;51.152;4.456;2023-08-17T04:49:26;18.00;99.90
22716;DHT22;11525;51.152;4.456;2023-08-17T04:51:52;18.00;99.90
22716;DHT22;11525;51.152;4.456;2023-08-17T04:54:18;18.00;99.90
22716;DHT22;11525;51.152;4.456;2023-08-17T04:56:43;18.00;99.90
22716;DHT22;11525;51.152;4.456;2023-08-17T04:59:09;17.90;99.90
22716;DHT22;11525;51.152;4.456;2023-08-17T05:01:35;17.90;99.90
22716;DHT22;11525;51.152;4.456;2023-08-17T05:04:01;18.00;99.90
22716;DHT22;11525;51.152;4.456;2023-08-17T05:06:30;17.90;99.90
22716;DHT22;11525;51.152;4.456;2023-08-17T05:08:56;17.90;99.90
22716;DHT22;11525;51.152;4.456;2023-08-17T05:11:22;18.00;99.90
22716;DHT22;11525;51.152;4.456;2023-08-17T05:13:48;18.00;99.90
22716;DHT22;11525;51.152;4.456;2023-08-17T05:16:14;18.10;99.90
22716;DHT22;11525;51.152;4.456;2023-08-17T05:18:40;18.10;99.90
22716;DHT22;11525;51.152;4.456;2023-08-17T05:21:05;18.10;99.90
22716;DHT22;11525;51.152;4.456;2023-08-17T05:23:31;17.90;99.90
22716;DHT22;11525;51.152;4.456;2023-08-17T05:25:57;18.00;99.90
22716;DHT22;11525;51.152;4.456;2023-08-17T05:28:23;18.10;99.90
22716;DHT22;11525;51.152;4.456;2023-08-17T05:30:49;18.20;99.90
22716;DHT22;11525;51.152;4.456;2023-08-17T05:33:15;18.30;99.90
22716;DHT22;11525;51.152;4.456;2023-08-17T05:35:40;18.30;99.90
22716;DHT22;11525;51.152;4.456;2023-08-17T05:38:08;18.30;99.90
22716;DHT22;11525;51.152;4.456;2023-08-17T05:40:35;18.30;99.90
22716;DHT22;11525;51.152;4.456;2023-08-17T05:43:00;18.30;99.90
22716;DHT22;11525;51.152;4.456;2023-08-17T05:45:26;18.30;99.90
22716;DHT22;11525;51.152;4.456;2023-08-17T05:47:52;18.30;99.90
22716;DHT22;11525;51.152;4.456;2023-08-17T05:50:18;18.20;99.90
22716;DHT22;11525;51.152;4.456;2023-08-17T05:52:43;18.20;99.90
22716;DHT22;11525;51.152;4.456;2023-08-17T05:55:09;18.10;99.90
22716;DHT22;11525;51.152;4.456;2023-08-17T05:57:35;18.00;99.90
22716;DHT22;11525;51.152;4.456;2023-08-17T06:00:01;18.00;99.90
22716;DHT22;11525;51.152;4.456;2023-08-17T06:02:26;18.10;99.90
22716;DHT22;11525;51.152;4.456;2023-08-17T06:04:52;18.40;99.90
22716;DHT22;11525;51.152;4.456;2023-08-17T06:07:18;18.40;99.90
22716;DHT22;11525;51.152;4.456;2023-08-17T06:09:43;18.50;99.90
22716;DHT22;11525;51.152;4.456;2023-08-17T06:12:09;18.30;99.90
22716;DHT22;11525;51.152;4.456;2023-08-17T06:14:35;18.40;99.90
22716;DHT22;11525;51.152;4.456;2023-08-17T06:17:00;18.50;99.90
22716;DHT22;11525;51.152;4.456;2023-08-17T06:19:26;18.50;99.90
22716;DHT22;11525;51.152;4.456;2023-08-17T06:21:52;18.40;99.90
22716;DHT22;11525;51.152;4.456;2023-08-17T06:24:17;18.50;99.90
22716;DHT22;11525;51.152;4.456;2023-08-17T06:26:44;18.60;99.90
22716;DHT22;11525;51.152;4.456;2023-08-17T06:29:10;18.50;99.90
22716;DHT22;11525;51.152;4.456;2023-08-17T06:31:35;18.50;99.90
22716;DHT22;11525;51.152;4.456;2023-08-17T06:34:01;18.40;99.90
22716;DHT22;11525;51.152;4.456;2023-08-17T06:36:31;18.30;99.90
22716;DHT22;11525;51.152;4.456;2023-08-17T06:38:57;18.20;99.90
22716;DHT22;11525;51.152;4.456;2023-08-17T06:41:23;18.20;99.90
22716;DHT22;11525;51.152;4.456;2023-08-17T06:43:50;18.30;99.90
22716;DHT22;11525;51.152;4.456;2023-08-17T06:46:16;18.30;99.90
22716;DHT22;11525;51.152;4.456;2023-08-17T06:48:42;18.10;99.90
22716;DHT22;11525;51.152;4.456;2023-08-17T06:51:08;18.00;99.90
22716;DHT22;11525;51.152;4.456;2023-08-17T06:53:34;18.10;99.90
22716;DHT22;11525;51.152;4.456;2023-08-17T06:56:00;18.30;99.90
22716;DHT22;11525;51.152;4.456;2023-08-17T06:58:25;18.40;99.90
22716;DHT22;11525;51.152;4.456;2023-08-17T07:00:51;18.40;99.90
22716;DHT22;11525;51.152;4.456;2023-08-17T07:03:17;18.60;99.90
22716;DHT22;11525;51.152;4.456;2023-08-17T07:05:43;18.90;99.90
22716;DHT22;11525;51.152;4.456;2023-08-17T07:08:09;19.00;99.90
22716;DHT22;11525;51.152;4.456;2023-08-17T07:10:34;19.00;99.90
22716;DHT22;11525;51.152;4.456;2023-08-17T07:13:00;19.00;99.90
22716;DHT22;11525;51.152;4.456;2023-08-17T07:15:29;19.00;99.90
22716;DHT22;11525;51.152;4.456;2023-08-17T07:17:55;19.20;99.90
22716;DHT22;11525;51.152;4.456;2023-08-17T07:20:21;19.50;99.90
22716;DHT22;11525;51.152;4.456;2023-08-17T07:22:46;19.70;99.90
22716;DHT22;11525;51.152;4.456;2023-08-17T07:25:12;20.10;99.90
22716;DHT22;11525;51.152;4.456;2023-08-17T07:27:38;20.70;99.90
22716;DHT22;11525;51.152;4.456;2023-08-17T07:30:04;21.40;99.90
22716;DHT22;11525;51.152;4.456;2023-08-17T07:32:30;21.10;99.90
22716;DHT22;11525;51.152;4.456;2023-08-17T07:34:56;21.00;99.90
22716;DHT22;11525;51.152;4.456;2023-08-17T07:37:21;21.40;99.90
22716;DHT22;11525;51.152;4.456;2023-08-17T07:39:47;21.40;99.90
22716;DHT22;11525;51.152;4.456;2023-08-17T07:42:13;21.30;99.90
22716;DHT22;11525;51.152;4.456;2023-08-17T07:44:38;21.20;99.90
22716;DHT22;11525;51.152;4.456;2023-08-17T07:47:05;21.40;99.90
22716;DHT22;11525;51.152;4.456;2023-08-17T07:49:31;20.90;99.90
22716;DHT22;11525;51.152;4.456;2023-08-17T07:51:57;20.40;99.90
22716;DHT22;11525;51.152;4.456;2023-08-17T07:54:22;20.40;99.90
22716;DHT22;11525;51.152;4.456;2023-08-17T07:56:48;20.40;99.90
22716;DHT22;11525;51.152;4.456;2023-08-17T07:59:14;20.40;99.90
22716;DHT22;11525;51.152;4.456;2023-08-17T08:01:40;20.40;99.90
22716;DHT22;11525;51.152;4.456;2023-08-17T08:04:06;20.20;99.90
22716;DHT22;11525;51.152;4.456;2023-08-17T08:06:32;20.20;99.90
22716;DHT22;11525;51.152;4.456;2023-08-17T08:08:58;20.30;99.90
22716;DHT22;11525;51.152;4.456;2023-08-17T08:11:23;20.40;99.90
22716;DHT22;11525;51.152;4.456;2023-08-17T08:13:49;20.20;99.90
22716;DHT22;11525;51.152;4.456;2023-08-17T08:16:15;20.20;99.90
22716;DHT22;11525;51.152;4.456;2023-08-17T08:18:40;20.20;99.90
22716;DHT22;11525;51.152;4.456;2023-08-17T08:21:06;20.40;99.90
22716;DHT22;11525;51.152;4.456;2023-08-17T08:23:32;20.40;99.90
22716;DHT22;11525;51.152;4.456;2023-08-17T08:25:57;20.30;99.90
22716;DHT22;11525;51.152;4.456;2023-08-17T08:28:24;20.10;99.90
22716;DHT22;11525;51.152;4.456;2023-08-17T08:30:51;20.10;99.90
22716;DHT22;11525;51.152;4.456;2023-08-17T08:33:16;20.10;99.90
22716;DHT22;11525;51.152;4.456;2023-08-17T08:35:42;20.20;99.90
22716;DHT22;11525;51.152;4.456;2023-08-17T08:38:08;20.10;99.90
22716;DHT22;11525;51.152;4.456;2023-08-17T08:40:37;20.10;99.90
22716;DHT22;11525;51.152;4.456;2023-08-17T08:43:03;20.30;99.90
22716;DHT22;11525;51.152;4.456;2023-08-17T08:45:30;20.40;99.90
22716;DHT22;11525;51.152;4.456;2023-08-17T08:47:57;20.40;99.90
22716;DHT22;11525;51.152;4.456;2023-08-17T08:50:26;20.70;99.90
22716;DHT22;11525;51.152;4.456;2023-08-17T08:52:59;20.70;99.90
22716;DHT22;11525;51.152;4.456;2023-08-17T08:55:32;20.50;99.90
22716;DHT22;11525;51.152;4.456;2023-08-17T08:57:59;20.60;99.90
22716;DHT22;11525;51.152;4.456;2023-08-17T09:00:26;20.40;99.90
22716;DHT22;11525;51.152;4.456;2023-08-17T09:02:53;20.20;99.90
22716;DHT22;11525;51.152;4.456;2023-08-17T09:05:19;20.30;99.90
22716;DHT22;11525;51.152;4.456;2023-08-17T09:07:48;20.20;99.90
22716;DHT22;11525;51.152;4.456;2023-08-17T09:10:14;20.30;99.90
22716;DHT22;11525;51.152;4.456;2023-08-17T09:12:43;20.50;99.90
22716;DHT22;11525;51.152;4.456;2023-08-17T09:15:09;20.60;99.90
22716;DHT22;11525;51.152;4.456;2023-08-17T09:17:35;20.80;99.90
22716;DHT22;11525;51.152;4.456;2023-08-17T09:20:00;20.50;99.90
22716;DHT22;11525;51.152;4.456;2023-08-17T09:22:42;20.60;99.90
22716;DHT22;11525;51.152;4.456;2023-08-17T09:25:10;20.90;99.90
22716;DHT22;11525;51.152;4.456;2023-08-17T09:27:37;20.90;99.90
22716;DHT22;11525;51.152;4.456;2023-08-17T09:30:08;21.20;99.90
22716;DHT22;11525;51.152;4.456;2023-08-17T09:32:34;21.20;99.90
22716;DHT22;11525;51.152;4.456;2023-08-17T09:35:06;21.30;99.90
22716;DHT22;11525;51.152;4.456;2023-08-17T09:37:32;21.50;99.90
22716;DHT22;11525;51.152;4.456;2023-08-17T09:39:58;21.70;99.90
22716;DHT22;11525;51.152;4.456;2023-08-17T09:42:24;21.70;99.90
22716;DHT22;11525;51.152;4.456;2023-08-17T09:44:51;21.50;99.90
22716;DHT22;11525;51.152;4.456;2023-08-17T09:47:17;21.80;99.90
22716;DHT22;11525;51.152;4.456;2023-08-17T09:49:51;21.70;99.90
22716;DHT22;11525;51.152;4.456;2023-08-17T09:52:18;21.90;99.90
22716;DHT22;11525;51.152;4.456;2023-08-17T09:54:45;22.20;99.90
22716;DHT22;11525;51.152;4.456;2023-08-17T09:57:12;22.10;99.90
22716;DHT22;11525;51.152;4.456;2023-08-17T09:59:38;22.20;99.90
22716;DHT22;11525;51.152;4.456;2023-08-17T10:02:06;22.30;99.90
22716;DHT22;11525;51.152;4.456;2023-08-17T10:04:37;22.40;99.90
22716;DHT22;11525;51.152;4.456;2023-08-17T10:07:03;22.00;99.90
22716;DHT22;11525;51.152;4.456;2023-08-17T10:09:39;22.30;99.90
22716;DHT22;11525;51.152;4.456;2023-08-17T10:12:10;23.20;99.90
22716;DHT22;11525;51.152;4.456;2023-08-17T10:14:45;23.40;99.90
22716;DHT22;11525;51.152;4.456;2023-08-17T10:17:16;23.30;99.90
22716;DHT22;11525;51.152;4.456;2023-08-17T10:19:50;23.70;99.90
22716;DHT22;11525;51.152;4.456;2023-08-17T10:24:49;24.00;99.90
22716;DHT22;11525;51.152;4.456;2023-08-17T10:27:17;23.80;99.90
22716;DHT22;11525;51.152;4.456;2023-08-17T10:29:43;23.80;99.90
22716;DHT22;11525;51.152;4.456;2023-08-17T10:32:11;23.30;99.90
22716;DHT22;11525;51.152;4.456;2023-08-17T10:34:37;23.10;99.90
22716;DHT22;11525;51.152;4.456;2023-08-17T10:37:04;23.10;99.90
22716;DHT22;11525;51.152;4.456;2023-08-17T10:39:31;23.00;99.90
22716;DHT22;11525;51.152;4.456;2023-08-17T10:41:58;23.00;99.90
22716;DHT22;11525;51.152;4.456;2023-08-17T10:44:50;22.90;99.90
22716;DHT22;11525;51.152;4.456;2023-08-17T10:47:20;22.50;99.90
22716;DHT22;11525;51.152;4.456;2023-08-17T10:50:04;22.20;99.90
22716;DHT22;11525;51.152;4.456;2023-08-17T10:52:31;22.30;99.90
22716;DHT22;11525;51.152;4.456;2023-08-17T10:55:08;22.20;99.90
22716;DHT22;11525;51.152;4.456;2023-08-17T10:57:42;22.40;99.90
22716;DHT22;11525;51.152;4.456;2023-08-17T11:00:19;22.30;99.90
22716;DHT22;11525;51.152;4.456;2023-08-17T11:02:58;22.50;99.90
22716;DHT22;11525;51.152;4.456;2023-08-17T11:05:46;22.20;99.90
22716;DHT22;11525;51.152;4.456;2023-08-17T11:08:28;22.20;99.90
22716;DHT22;11525;51.152;4.456;2023-08-17T11:11:14;22.20;99.90
22716;DHT22;11525;51.152;4.456;2023-08-17T11:13:41;22.50;99.90
22716;DHT22;11525;51.152;4.456;2023-08-17T11:16:08;22.50;99.90
22716;DHT22;11525;51.152;4.456;2023-08-17T11:18:35;22.50;99.90
22716;DHT22;11525;51.152;4.456;2023-08-17T11:21:05;22.70;99.90
22716;DHT22;11525;51.152;4.456;2023-08-17T11:23:33;22.70;99.90
22716;DHT22;11525;51.152;4.456;2023-08-17T11:25:59;22.60;99.90
22716;DHT22;11525;51.152;4.456;2023-08-17T11:28:25;22.40;99.90
22716;DHT22;11525;51.152;4.456;2023-08-17T11:31:01;22.30;99.90
22716;DHT22;11525;51.152;4.456;2023-08-17T11:33:28;22.30;99.90
22716;DHT22;11525;51.152;4.456;2023-08-17T11:35:58;22.20;99.90
22716;DHT22;11525;51.152;4.456;2023-08-17T11:38:25;22.00;99.90
22716;DHT22;11525;51.152;4.456;2023-08-17T11:40:51;22.00;99.90
22716;DHT22;11525;51.152;4.456;2023-08-17T11:43:18;22.10;99.90
22716;DHT22;11525;51.152;4.456;2023-08-17T11:45:44;22.20;99.90
22716;DHT22;11525;51.152;4.456;2023-08-17T11:48:09;22.10;99.90
22716;DHT22;11525;51.152;4.456;2023-08-17T11:50:35;22.00;99.90
22716;DHT22;11525;51.152;4.456;2023-08-17T11:53:01;22.00;99.90
22716;DHT22;11525;51.152;4.456;2023-08-17T11:55:27;22.00;99.90
22716;DHT22;11525;51.152;4.456;2023-08-17T11:57:54;21.90;99.90
22716;DHT22;11525;51.152;4.456;2023-08-17T12:00:21;21.90;99.90
22716;DHT22;11525;51.152;4.456;2023-08-17T12:02:50;21.80;99.90
22716;DHT22;11525;51.152;4.456;2023-08-17T12:05:23;21.90;99.90
22716;DHT22;11525;51.152;4.456;2023-08-17T12:07:55;21.80;99.90
22716;DHT22;11525;51.152;4.456;2023-08-17T12:10:21;22.00;99.90
22716;DHT22;11525;51.152;4.456;2023-08-17T12:12:49;22.30;99.90
22716;DHT22;11525;51.152;4.456;2023-08-17T12:15:19;22.50;99.90
22716;DHT22;11525;51.152;4.456;2023-08-17T12:17:49;22.60;99.90
22716;DHT22;11525;51.152;4.456;2023-08-17T12:20:19;22.80;99.90
22716;DHT22;11525;51.152;4.456;2023-08-17T12:22:46;22.80;99.90
22716;DHT22;11525;51.152;4.456;2023-08-17T12:25:12;22.20;99.90
22716;DHT22;11525;51.152;4.456;2023-08-17T12:27:38;22.30;99.90
22716;DHT22;11525;51.152;4.456;2023-08-17T12:30:05;22.80;99.90
22716;DHT22;11525;51.152;4.456;2023-08-17T12:32:36;22.80;99.90
22716;DHT22;11525;51.152;4.456;2023-08-17T12:35:02;22.50;99.90
22716;DHT22;11525;51.152;4.456;2023-08-17T12:37:29;22.50;99.90
22716;DHT22;11525;51.152;4.456;2023-08-17T12:39:55;22.80;99.90
22716;DHT22;11525;51.152;4.456;2023-08-17T12:42:20;23.00;99.90
22716;DHT22;11525;51.152;4.456;2023-08-17T12:44:46;23.00;99.90
22716;DHT22;11525;51.152;4.456;2023-08-17T12:47:11;22.90;99.90
22716;DHT22;11525;51.152;4.456;2023-08-17T12:49:37;22.30;99.90
22716;DHT22;11525;51.152;4.456;2023-08-17T12:52:03;22.30;99.90
22716;DHT22;11525;51.152;4.456;2023-08-17T12:54:29;22.40;99.90
22716;DHT22;11525;51.152;4.456;2023-08-17T12:56:54;22.50;99.90
22716;DHT22;11525;51.152;4.456;2023-08-17T12:59:20;22.20;99.90
22716;DHT22;11525;51.152;4.456;2023-08-17T13:01:46;22.50;99.90
22716;DHT22;11525;51.152;4.456;2023-08-17T13:04:12;22.30;99.90
22716;DHT22;11525;51.152;4.456;2023-08-17T13:06:38;22.70;99.90
22716;DHT22;11525;51.152;4.456;2023-08-17T13:09:04;23.00;99.90
22716;DHT22;11525;51.152;4.456;2023-08-17T13:11:31;23.40;99.90
22716;DHT22;11525;51.152;4.456;2023-08-17T13:13:56;23.40;99.90
22716;DHT22;11525;51.152;4.456;2023-08-17T13:16:22;23.10;99.90
22716;DHT22;11525;51.152;4.456;2023-08-17T13:18:48;23.40;99.90
22716;DHT22;11525;51.152;4.456;2023-08-17T13:21:14;23.60;99.90
22716;DHT22;11525;51.152;4.456;2023-08-17T13:23:41;23.70;99.90
22716;DHT22;11525;51.152;4.456;2023-08-17T13:26:07;23.70;99.90
22716;DHT22;11525;51.152;4.456;2023-08-17T13:28:33;23.10;99.90
22716;DHT22;11525;51.152;4.456;2023-08-17T13:30:58;23.10;99.90
22716;DHT22;11525;51.152;4.456;2023-08-17T13:33:24;23.00;99.90
22716;DHT22;11525;51.152;4.456;2023-08-17T13:35:50;23.20;99.90
22716;DHT22;11525;51.152;4.456;2023-08-17T13:38:16;23.40;99.90
22716;DHT22;11525;51.152;4.456;2023-08-17T13:40:42;23.20;99.90
22716;DHT22;11525;51.152;4.456;2023-08-17T13:43:08;23.40;99.90
22716;DHT22;11525;51.152;4.456;2023-08-17T13:45:41;23.50;99.90
22716;DHT22;11525;51.152;4.456;2023-08-17T13:48:07;23.10;99.90
22716;DHT22;11525;51.152;4.456;2023-08-17T13:50:34;23.00;99.90
22716;DHT22;11525;51.152;4.456;2023-08-17T13:52:59;23.20;99.90
22716;DHT22;11525;51.152;4.456;2023-08-17T13:55:26;23.10;99.90
22716;DHT22;11525;51.152;4.456;2023-08-17T13:57:53;23.00;99.90
22716;DHT22;11525;51.152;4.456;2023-08-17T14:00:21;23.20;99.90
22716;DHT22;11525;51.152;4.456;2023-08-17T14:02:46;22.80;99.90
22716;DHT22;11525;51.152;4.456;2023-08-17T14:05:12;22.90;99.90
22716;DHT22;11525;51.152;4.456;2023-08-17T14:07:38;22.80;99.90
22716;DHT22;11525;51.152;4.456;2023-08-17T14:10:03;22.80;99.90
22716;DHT22;11525;51.152;4.456;2023-08-17T14:12:30;23.00;99.90
22716;DHT22;11525;51.152;4.456;2023-08-17T14:14:56;23.00;99.90
22716;DHT22;11525;51.152;4.456;2023-08-17T14:17:21;22.80;99.90
22716;DHT22;11525;51.152;4.456;2023-08-17T14:19:47;23.00;99.90
22716;DHT22;11525;51.152;4.456;2023-08-17T14:22:12;22.90;99.90
22716;DHT22;11525;51.152;4.456;2023-08-17T14:24:38;22.90;99.90
22716;DHT22;11525;51.152;4.456;2023-08-17T14:27:04;23.00;99.90
22716;DHT22;11525;51.152;4.456;2023-08-17T14:29:29;23.10;99.90
22716;DHT22;11525;51.152;4.456;2023-08-17T14:31:55;23.00;99.90
22716;DHT22;11525;51.152;4.456;2023-08-17T14:34:20;22.70;99.90
22716;DHT22;11525;51.152;4.456;2023-08-17T14:36:47;22.70;99.90
22716;DHT22;11525;51.152;4.456;2023-08-17T14:39:12;23.00;99.90
22716;DHT22;11525;51.152;4.456;2023-08-17T14:41:38;22.80;99.90
22716;DHT22;11525;51.152;4.456;2023-08-17T14:44:04;22.70;99.90
22716;DHT22;11525;51.152;4.456;2023-08-17T14:46:30;22.80;99.90
22716;DHT22;11525;51.152;4.456;2023-08-17T14:48:56;22.90;99.90
22716;DHT22;11525;51.152;4.456;2023-08-17T14:51:21;23.10;99.90
22716;DHT22;11525;51.152;4.456;2023-08-17T14:53:48;23.10;99.90
22716;DHT22;11525;51.152;4.456;2023-08-17T14:56:13;23.10;99.90
22716;DHT22;11525;51.152;4.456;2023-08-17T14:58:39;23.40;99.90
22716;DHT22;11525;51.152;4.456;2023-08-17T15:01:04;23.30;99.90
22716;DHT22;11525;51.152;4.456;2023-08-17T15:03:30;23.00;99.90
22716;DHT22;11525;51.152;4.456;2023-08-17T15:05:56;23.20;99.90
22716;DHT22;11525;51.152;4.456;2023-08-17T15:08:21;23.10;99.90
22716;DHT22;11525;51.152;4.456;2023-08-17T15:10:47;23.00;99.90
22716;DHT22;11525;51.152;4.456;2023-08-17T15:13:14;23.00;99.90
22716;DHT22;11525;51.152;4.456;2023-08-17T15:15:41;22.90;99.90
22716;DHT22;11525;51.152;4.456;2023-08-17T15:18:08;22.80;99.90
22716;DHT22;11525;51.152;4.456;2023-08-17T15:20:34;22.60;99.90
22716;DHT22;11525;51.152;4.456;2023-08-17T15:22:59;22.60;99.90
22716;DHT22;11525;51.152;4.456;2023-08-17T15:25:25;22.50;99.90
22716;DHT22;11525;51.152;4.456;2023-08-17T15:27:51;22.60;99.90
22716;DHT22;11525;51.152;4.456;2023-08-17T15:30:17;22.70;99.90
22716;DHT22;11525;51.152;4.456;2023-08-17T15:32:42;22.50;99.90
22716;DHT22;11525;51.152;4.456;2023-08-17T15:35:10;22.50;99.90
22716;DHT22;11525;51.152;4.456;2023-08-17T15:37:39;22.50;99.90
22716;DHT22;11525;51.152;4.456;2023-08-17T15:40:06;22.60;99.90
22716;DHT22;11525;51.152;4.456;2023-08-17T15:42:32;22.40;99.90
22716;DHT22;11525;51.152;4.456;2023-08-17T15:44:57;22.60;99.90
22716;DHT22;11525;51.152;4.456;2023-08-17T15:47:23;22.70;99.90